sensor_id;sensor_type;location;lat;lon;timestamp;pressure;altitude;pressure_sealevel;temperature;humidity
34297;BME280;20564;42.902;25.336;2023-01-28T00:01:26;96671.03;;;0.62;100.00
34297;BME280;20564;42.902;25.336;2023-01-28T00:03:52;96671.69;;;0.52;100.00
34297;BME280;20564;42.902;25.336;2023-01-28T00:06:19;96660.75;;;0.46;100.00
34297;BME280;20564;42.902;25.336;2023-01-28T00:08:47;96677.75;;;0.51;100.00
34297;BME280;20564;42.902;25.336;2023-01-28T00:11:13;96671.03;;;0.48;100.00
34297;BME280;20564;42.902;25.336;2023-01-28T00:13:40;96673.16;;;0.41;100.00
34297;BME280;20564;42.902;25.336;2023-01-28T00:16:08;96677.13;;;0.47;100.00
34297;BME280;20564;42.902;25.336;2023-01-28T00:18:35;96673.41;;;0.51;100.00
34297;BME280;20564;42.902;25.336;2023-01-28T00:21:09;96675.81;;;0.54;100.00
34297;BME280;20564;42.902;25.336;2023-01-28T00:23:37;96681.09;;;0.53;100.00
34297;BME280;20564;42.902;25.336;2023-01-28T00:26:09;96683.59;;;0.54;100.00
34297;BME280;20564;42.902;25.336;2023-01-28T00:28:35;96675.28;;;0.49;100.00
34297;BME280;20564;42.902;25.336;2023-01-28T00:31:29;96676.00;;;0.51;100.00
34297;BME280;20564;42.902;25.336;2023-01-28T00:33:56;96684.63;;;0.52;100.00
34297;BME280;20564;42.902;25.336;2023-01-28T00:36:24;96694.13;;;0.51;100.00
34297;BME280;20564;42.902;25.336;2023-01-28T00:38:51;96684.53;;;0.53;100.00
34297;BME280;20564;42.902;25.336;2023-01-28T00:41:19;96699.50;;;0.48;100.00
34297;BME280;20564;42.902;25.336;2023-01-28T00:43:50;96699.69;;;0.45;100.00
34297;BME280;20564;42.902;25.336;2023-01-28T00:46:18;96694.50;;;0.45;100.00
34297;BME280;20564;42.902;25.336;2023-01-28T00:48:45;96694.13;;;0.51;100.00
34297;BME280;20564;42.902;25.336;2023-01-28T00:51:14;96688.78;;;0.54;100.00
34297;BME280;20564;42.902;25.336;2023-01-28T00:53:43;96688.59;;;0.57;100.00
34297;BME280;20564;42.902;25.336;2023-01-28T00:56:12;96687.59;;;0.60;100.00
34297;BME280;20564;42.902;25.336;2023-01-28T00:58:39;96692.41;;;0.66;100.00
34297;BME280;20564;42.902;25.336;2023-01-28T01:01:26;96692.31;;;0.67;100.00
34297;BME280;20564;42.902;25.336;2023-01-28T01:03:53;96688.41;;;0.60;100.00
34297;BME280;20564;42.902;25.336;2023-01-28T01:06:36;96692.59;;;0.63;100.00
34297;BME280;20564;42.902;25.336;2023-01-28T01:09:05;96703.47;;;0.54;100.00
34297;BME280;20564;42.902;25.336;2023-01-28T01:11:34;96697.16;;;0.43;100.00
34297;BME280;20564;42.902;25.336;2023-01-28T01:14:01;96705.25;;;0.53;100.00
34297;BME280;20564;42.902;25.336;2023-01-28T01:16:31;96704.41;;;0.53;100.00
34297;BME280;20564;42.902;25.336;2023-01-28T01:18:59;96707.84;;;0.53;100.00
34297;BME280;20564;42.902;25.336;2023-01-28T01:21:27;96705.25;;;0.53;100.00
34297;BME280;20564;42.902;25.336;2023-01-28T01:23:54;96708.75;;;0.52;100.00
34297;BME280;20564;42.902;25.336;2023-01-28T01:26:22;96699.31;;;0.51;100.00
34297;BME280;20564;42.902;25.336;2023-01-28T01:28:51;96702.38;;;0.58;100.00
34297;BME280;20564;42.902;25.336;2023-01-28T01:31:20;96701.72;;;0.54;100.00
34297;BME280;20564;42.902;25.336;2023-01-28T01:33:49;96694.22;;;0.50;100.00
34297;BME280;20564;42.902;25.336;2023-01-28T01:36:17;96696.00;;;0.49;100.00
34297;BME280;20564;42.902;25.336;2023-01-28T01:38:51;96708.97;;;0.63;100.00
34297;BME280;20564;42.902;25.336;2023-01-28T01:41:27;96712.47;;;0.62;100.00
34297;BME280;20564;42.902;25.336;2023-01-28T01:44:00;96702.84;;;0.64;100.00
34297;BME280;20564;42.902;25.336;2023-01-28T01:46:43;96710.63;;;0.64;100.00
34297;BME280;20564;42.902;25.336;2023-01-28T01:49:21;96719.97;;;0.67;100.00
34297;BME280;20564;42.902;25.336;2023-01-28T01:52:23;96709.63;;;0.67;100.00
34297;BME280;20564;42.902;25.336;2023-01-28T01:55:52;96702.09;;;0.77;100.00
34297;BME280;20564;42.902;25.336;2023-01-28T01:58:34;96715.91;;;0.77;100.00
34297;BME280;20564;42.902;25.336;2023-01-28T02:01:03;96716.00;;;0.76;100.00
34297;BME280;20564;42.902;25.336;2023-01-28T02:04:01;96708.69;;;0.68;100.00
34297;BME280;20564;42.902;25.336;2023-01-28T02:06:47;96704.50;;;0.65;100.00
34297;BME280;20564;42.902;25.336;2023-01-28T02:09:31;96715.78;;;0.64;100.00
34297;BME280;20564;42.902;25.336;2023-01-28T02:12:27;96701.09;;;0.65;100.00
34297;BME280;20564;42.902;25.336;2023-01-28T02:15:09;96710.09;;;0.74;100.00
34297;BME280;20564;42.902;25.336;2023-01-28T02:17:59;96720.44;;;0.74;100.00
34297;BME280;20564;42.902;25.336;2023-01-28T02:30:15;96721.44;;;0.71;100.00
34297;BME280;20564;42.902;25.336;2023-01-28T02:33:08;96708.66;;;0.54;100.00
34297;BME280;20564;42.902;25.336;2023-01-28T02:35:54;96723.03;;;0.59;100.00
34297;BME280;20564;42.902;25.336;2023-01-28T02:38:45;96724.19;;;0.54;100.00
34297;BME280;20564;42.902;25.336;2023-01-28T02:41:29;96728.72;;;0.50;100.00
34297;BME280;20564;42.902;25.336;2023-01-28T02:44:02;96731.03;;;0.55;100.00
34297;BME280;20564;42.902;25.336;2023-01-28T02:46:46;96726.88;;;0.52;100.00
34297;BME280;20564;42.902;25.336;2023-01-28T02:49:41;96732.59;;;0.43;100.00
34297;BME280;20564;42.902;25.336;2023-01-28T02:58:09;96738.13;;;0.37;100.00
34297;BME280;20564;42.902;25.336;2023-01-28T03:00:45;96752.75;;;0.38;100.00
34297;BME280;20564;42.902;25.336;2023-01-28T03:06:10;96751.47;;;0.45;100.00
34297;BME280;20564;42.902;25.336;2023-01-28T03:08:43;96747.94;;;0.46;100.00
34297;BME280;20564;42.902;25.336;2023-01-28T03:11:33;96736.41;;;0.52;100.00
34297;BME280;20564;42.902;25.336;2023-01-28T03:14:21;96740.19;;;0.46;100.00
34297;BME280;20564;42.902;25.336;2023-01-28T03:17:15;96743.16;;;0.54;100.00
34297;BME280;20564;42.902;25.336;2023-01-28T03:20:03;96745.56;;;0.57;100.00
34297;BME280;20564;42.902;25.336;2023-01-28T03:23:01;96749.09;;;0.56;100.00
34297;BME280;20564;42.902;25.336;2023-01-28T03:25:53;96746.16;;;0.62;100.00
34297;BME280;20564;42.902;25.336;2023-01-28T03:28:45;96750.75;;;0.57;100.00
34297;BME280;20564;42.902;25.336;2023-01-28T03:31:34;96749.38;;;0.52;100.00
34297;BME280;20564;42.902;25.336;2023-01-28T03:34:25;96757.19;;;0.50;100.00
34297;BME280;20564;42.902;25.336;2023-01-28T03:37:16;96756.28;;;0.51;100.00
34297;BME280;20564;42.902;25.336;2023-01-28T03:39:51;96764.97;;;0.50;100.00
34297;BME280;20564;42.902;25.336;2023-01-28T03:42:22;96766.63;;;0.37;100.00
34297;BME280;20564;42.902;25.336;2023-01-28T03:45:00;96767.88;;;0.30;100.00
34297;BME280;20564;42.902;25.336;2023-01-28T03:47:42;96776.00;;;0.23;100.00
34297;BME280;20564;42.902;25.336;2023-01-28T03:50:15;96770.59;;;0.12;100.00
34297;BME280;20564;42.902;25.336;2023-01-28T03:52:46;96767.25;;;0.10;100.00
34297;BME280;20564;42.902;25.336;2023-01-28T03:55:17;96771.03;;;0.05;100.00
34297;BME280;20564;42.902;25.336;2023-01-28T03:57:55;96771.19;;;0.02;100.00
34297;BME280;20564;42.902;25.336;2023-01-28T04:00:23;96759.00;;;-0.12;100.00
34297;BME280;20564;42.902;25.336;2023-01-28T04:02:57;96782.63;;;-0.03;100.00
34297;BME280;20564;42.902;25.336;2023-01-28T04:05:28;96778.63;;;-0.08;100.00
34297;BME280;20564;42.902;25.336;2023-01-28T04:08:12;96785.28;;;-0.04;100.00
34297;BME280;20564;42.902;25.336;2023-01-28T04:10:55;96790.06;;;-0.12;100.00
34297;BME280;20564;42.902;25.336;2023-01-28T04:13:31;96803.50;;;-0.06;100.00
34297;BME280;20564;42.902;25.336;2023-01-28T04:16:03;96743.94;;;-0.36;100.00
34297;BME280;20564;42.902;25.336;2023-01-28T04:18:32;96782.41;;;-0.14;100.00
34297;BME280;20564;42.902;25.336;2023-01-28T04:21:00;96797.31;;;-0.03;100.00
34297;BME280;20564;42.902;25.336;2023-01-28T04:23:28;96781.56;;;-0.14;100.00
34297;BME280;20564;42.902;25.336;2023-01-28T04:26:07;96762.34;;;-0.26;100.00
34297;BME280;20564;42.902;25.336;2023-01-28T04:28:52;96815.84;;;0.05;100.00
34297;BME280;20564;42.902;25.336;2023-01-28T04:31:23;96813.97;;;0.07;100.00
34297;BME280;20564;42.902;25.336;2023-01-28T04:34:06;96817.00;;;0.15;100.00
34297;BME280;20564;42.902;25.336;2023-01-28T04:36:33;96817.72;;;0.17;100.00
34297;BME280;20564;42.902;25.336;2023-01-28T04:39:05;96819.59;;;0.15;100.00
34297;BME280;20564;42.902;25.336;2023-01-28T04:41:34;96826.16;;;0.21;100.00
34297;BME280;20564;42.902;25.336;2023-01-28T04:44:03;96815.16;;;0.02;100.00
34297;BME280;20564;42.902;25.336;2023-01-28T04:46:40;96823.66;;;0.19;100.00
34297;BME280;20564;42.902;25.336;2023-01-28T04:49:11;96826.81;;;0.24;100.00
34297;BME280;20564;42.902;25.336;2023-01-28T04:51:40;96821.47;;;0.28;100.00
34297;BME280;20564;42.902;25.336;2023-01-28T04:54:08;96833.00;;;0.38;100.00
34297;BME280;20564;42.902;25.336;2023-01-28T04:56:40;96828.16;;;0.32;100.00
34297;BME280;20564;42.902;25.336;2023-01-28T04:59:11;96831.50;;;0.34;100.00
34297;BME280;20564;42.902;25.336;2023-01-28T05:01:42;96834.00;;;0.35;100.00
34297;BME280;20564;42.902;25.336;2023-01-28T05:04:09;96845.53;;;0.30;100.00
34297;BME280;20564;42.902;25.336;2023-01-28T05:06:39;96843.84;;;0.29;100.00
34297;BME280;20564;42.902;25.336;2023-01-28T05:09:14;96847.03;;;0.34;100.00
34297;BME280;20564;42.902;25.336;2023-01-28T05:11:41;96852.78;;;0.39;100.00
34297;BME280;20564;42.902;25.336;2023-01-28T05:14:09;96849.44;;;0.37;100.00
34297;BME280;20564;42.902;25.336;2023-01-28T05:16:35;96857.22;;;0.37;100.00
34297;BME280;20564;42.902;25.336;2023-01-28T05:19:02;96860.28;;;0.43;100.00
34297;BME280;20564;42.902;25.336;2023-01-28T05:21:29;96871.22;;;0.48;100.00
34297;BME280;20564;42.902;25.336;2023-01-28T05:23:56;96857.53;;;0.46;100.00
34297;BME280;20564;42.902;25.336;2023-01-28T05:26:23;96869.03;;;0.57;100.00
34297;BME280;20564;42.902;25.336;2023-01-28T05:28:50;96856.34;;;0.52;100.00
34297;BME280;20564;42.902;25.336;2023-01-28T05:31:17;96864.84;;;0.54;100.00
34297;BME280;20564;42.902;25.336;2023-01-28T05:33:44;96853.31;;;0.60;100.00
34297;BME280;20564;42.902;25.336;2023-01-28T05:36:11;96870.00;;;0.70;100.00
34297;BME280;20564;42.902;25.336;2023-01-28T05:38:38;96874.69;;;0.63;100.00
34297;BME280;20564;42.902;25.336;2023-01-28T05:41:05;96876.38;;;0.64;100.00
34297;BME280;20564;42.902;25.336;2023-01-28T05:43:33;96881.72;;;0.61;100.00
34297;BME280;20564;42.902;25.336;2023-01-28T05:46:01;96889.66;;;0.58;100.00
34297;BME280;20564;42.902;25.336;2023-01-28T05:48:29;96892.25;;;0.58;100.00
34297;BME280;20564;42.902;25.336;2023-01-28T05:50:59;96894.09;;;0.56;100.00
34297;BME280;20564;42.902;25.336;2023-01-28T05:53:26;96889.19;;;0.52;100.00
34297;BME280;20564;42.902;25.336;2023-01-28T05:55:53;96897.03;;;0.50;100.00
34297;BME280;20564;42.902;25.336;2023-01-28T05:58:20;96901.09;;;0.54;100.00
34297;BME280;20564;42.902;25.336;2023-01-28T06:00:47;96874.41;;;0.38;100.00
34297;BME280;20564;42.902;25.336;2023-01-28T06:03:15;96896.47;;;0.45;100.00
34297;BME280;20564;42.902;25.336;2023-01-28T06:05:43;96906.28;;;0.54;100.00
34297;BME280;20564;42.902;25.336;2023-01-28T06:08:13;96861.56;;;0.20;100.00
34297;BME280;20564;42.902;25.336;2023-01-28T06:10:40;96918.91;;;0.60;100.00
34297;BME280;20564;42.902;25.336;2023-01-28T06:13:07;96917.25;;;0.59;100.00
34297;BME280;20564;42.902;25.336;2023-01-28T06:15:35;96930.91;;;0.61;100.00
34297;BME280;20564;42.902;25.336;2023-01-28T06:18:07;96925.84;;;0.60;100.00
34297;BME280;20564;42.902;25.336;2023-01-28T06:20:34;96927.06;;;0.68;100.00
34297;BME280;20564;42.902;25.336;2023-01-28T06:23:02;96931.59;;;0.65;100.00
34297;BME280;20564;42.902;25.336;2023-01-28T06:25:32;96942.09;;;0.62;100.00
34297;BME280;20564;42.902;25.336;2023-01-28T06:27:59;96939.22;;;0.52;100.00
34297;BME280;20564;42.902;25.336;2023-01-28T06:30:30;96950.91;;;0.59;100.00
34297;BME280;20564;42.902;25.336;2023-01-28T06:32:57;96948.06;;;0.64;100.00
34297;BME280;20564;42.902;25.336;2023-01-28T06:35:24;96949.03;;;0.61;100.00
34297;BME280;20564;42.902;25.336;2023-01-28T06:37:51;96947.72;;;0.54;100.00
34297;BME280;20564;42.902;25.336;2023-01-28T06:40:19;96958.69;;;0.59;100.00
34297;BME280;20564;42.902;25.336;2023-01-28T06:42:48;96965.41;;;0.62;100.00
34297;BME280;20564;42.902;25.336;2023-01-28T06:45:15;96955.41;;;0.56;100.00
34297;BME280;20564;42.902;25.336;2023-01-28T06:47:41;96963.25;;;0.54;100.00
34297;BME280;20564;42.902;25.336;2023-01-28T06:50:09;96963.34;;;0.53;100.00
34297;BME280;20564;42.902;25.336;2023-01-28T06:52:36;96951.22;;;0.53;100.00
34297;BME280;20564;42.902;25.336;2023-01-28T06:55:03;96968.09;;;0.60;100.00
34297;BME280;20564;42.902;25.336;2023-01-28T06:57:30;96961.09;;;0.62;100.00
34297;BME280;20564;42.902;25.336;2023-01-28T06:59:56;96972.97;;;0.66;100.00
34297;BME280;20564;42.902;25.336;2023-01-28T07:02:23;96959.56;;;0.58;100.00
34297;BME280;20564;42.902;25.336;2023-01-28T07:04:53;96968.09;;;0.60;100.00
34297;BME280;20564;42.902;25.336;2023-01-28T07:07:20;96967.94;;;0.63;100.00
34297;BME280;20564;42.902;25.336;2023-01-28T07:09:47;96972.19;;;0.64;100.00
34297;BME280;20564;42.902;25.336;2023-01-28T07:12:14;96961.75;;;0.66;100.00
34297;BME280;20564;42.902;25.336;2023-01-28T07:14:41;96965.75;;;0.71;100.00
34297;BME280;20564;42.902;25.336;2023-01-28T07:17:08;96972.44;;;0.76;100.00
34297;BME280;20564;42.902;25.336;2023-01-28T07:19:35;96977.44;;;0.79;100.00
34297;BME280;20564;42.902;25.336;2023-01-28T07:22:02;96979.28;;;0.77;100.00
34297;BME280;20564;42.902;25.336;2023-01-28T07:24:29;96968.34;;;0.71;100.00
34297;BME280;20564;42.902;25.336;2023-01-28T07:26:57;96979.78;;;0.83;100.00
34297;BME280;20564;42.902;25.336;2023-01-28T07:29:24;96982.28;;;0.85;100.00
34297;BME280;20564;42.902;25.336;2023-01-28T07:31:50;96941.88;;;0.66;100.00
34297;BME280;20564;42.902;25.336;2023-01-28T07:34:17;96970.59;;;0.78;100.00
34297;BME280;20564;42.902;25.336;2023-01-28T07:36:44;96967.75;;;0.82;100.00
34297;BME280;20564;42.902;25.336;2023-01-28T07:39:11;96969.41;;;0.83;100.00
34297;BME280;20564;42.902;25.336;2023-01-28T07:41:38;96986.78;;;0.97;100.00
34297;BME280;20564;42.902;25.336;2023-01-28T07:44:05;96990.97;;;1.00;100.00
34297;BME280;20564;42.902;25.336;2023-01-28T07:46:31;96998.81;;;0.98;100.00
34297;BME280;20564;42.902;25.336;2023-01-28T07:48:59;96999.84;;;0.95;100.00
34297;BME280;20564;42.902;25.336;2023-01-28T07:51:26;96983.78;;;0.89;100.00
34297;BME280;20564;42.902;25.336;2023-01-28T07:53:53;97002.44;;;0.95;100.00
34297;BME280;20564;42.902;25.336;2023-01-28T07:56:20;96952.31;;;0.65;100.00
34297;BME280;20564;42.902;25.336;2023-01-28T07:58:49;96999.25;;;0.90;100.00
34297;BME280;20564;42.902;25.336;2023-01-28T08:01:16;96984.88;;;0.85;100.00
34297;BME280;20564;42.902;25.336;2023-01-28T08:03:43;97004.91;;;0.97;100.00
34297;BME280;20564;42.902;25.336;2023-01-28T08:06:10;96974.75;;;0.80;100.00
34297;BME280;20564;42.902;25.336;2023-01-28T08:08:37;96957.88;;;0.73;100.00
34297;BME280;20564;42.902;25.336;2023-01-28T08:11:08;97004.50;;;1.05;100.00
34297;BME280;20564;42.902;25.336;2023-01-28T08:13:36;96998.31;;;1.07;100.00
34297;BME280;20564;42.902;25.336;2023-01-28T08:16:03;97002.00;;;1.03;100.00
34297;BME280;20564;42.902;25.336;2023-01-28T08:18:30;96989.53;;;0.94;100.00
34297;BME280;20564;42.902;25.336;2023-01-28T08:20:58;97010.88;;;0.99;100.00
34297;BME280;20564;42.902;25.336;2023-01-28T08:23:25;97008.19;;;1.01;100.00
34297;BME280;20564;42.902;25.336;2023-01-28T08:25:53;97017.72;;;1.00;100.00
34297;BME280;20564;42.902;25.336;2023-01-28T08:28:21;97021.31;;;0.98;100.00
34297;BME280;20564;42.902;25.336;2023-01-28T08:30:48;97013.69;;;0.94;100.00
34297;BME280;20564;42.902;25.336;2023-01-28T08:33:17;97016.38;;;0.93;100.00
34297;BME280;20564;42.902;25.336;2023-01-28T08:35:45;97019.91;;;0.92;100.00
34297;BME280;20564;42.902;25.336;2023-01-28T08:38:12;97026.34;;;0.85;100.00
34297;BME280;20564;42.902;25.336;2023-01-28T08:40:41;97023.91;;;0.82;100.00
34297;BME280;20564;42.902;25.336;2023-01-28T08:43:07;97023.75;;;0.85;100.00
34297;BME280;20564;42.902;25.336;2023-01-28T08:45:34;97013.38;;;0.85;100.00
34297;BME280;20564;42.902;25.336;2023-01-28T08:48:05;97030.06;;;0.95;100.00
34297;BME280;20564;42.902;25.336;2023-01-28T08:50:36;97025.56;;;0.99;100.00
34297;BME280;20564;42.902;25.336;2023-01-28T08:53:06;97029.25;;;0.94;100.00
34297;BME280;20564;42.902;25.336;2023-01-28T08:55:34;97036.13;;;0.95;100.00
34297;BME280;20564;42.902;25.336;2023-01-28T08:58:03;97029.91;;;0.98;100.00
34297;BME280;20564;42.902;25.336;2023-01-28T09:00:31;97023.56;;;1.04;100.00
34297;BME280;20564;42.902;25.336;2023-01-28T09:02:58;97030.50;;;1.03;100.00
34297;BME280;20564;42.902;25.336;2023-01-28T09:05:25;97023.63;;;1.02;100.00
34297;BME280;20564;42.902;25.336;2023-01-28T09:07:53;97008.44;;;0.96;100.00
34297;BME280;20564;42.902;25.336;2023-01-28T09:10:19;97008.75;;;1.06;100.00
34297;BME280;20564;42.902;25.336;2023-01-28T09:12:47;97015.34;;;1.11;100.00
34297;BME280;20564;42.902;25.336;2023-01-28T09:15:14;97018.72;;;1.13;100.00
34297;BME280;20564;42.902;25.336;2023-01-28T09:17:41;97018.06;;;1.24;100.00
34297;BME280;20564;42.902;25.336;2023-01-28T09:20:09;97021.81;;;1.34;100.00
34297;BME280;20564;42.902;25.336;2023-01-28T09:22:36;97014.97;;;1.33;100.00
34297;BME280;20564;42.902;25.336;2023-01-28T09:25:03;97008.19;;;1.31;100.00
34297;BME280;20564;42.902;25.336;2023-01-28T09:27:30;97015.34;;;1.41;100.00
34297;BME280;20564;42.902;25.336;2023-01-28T09:29:57;96989.16;;;1.32;100.00
34297;BME280;20564;42.902;25.336;2023-01-28T09:32:24;97015.28;;;1.43;100.00
34297;BME280;20564;42.902;25.336;2023-01-28T09:34:51;97016.34;;;1.39;100.00
34297;BME280;20564;42.902;25.336;2023-01-28T09:37:17;96995.22;;;1.31;100.00
34297;BME280;20564;42.902;25.336;2023-01-28T09:39:44;97003.59;;;1.36;100.00
34297;BME280;20564;42.902;25.336;2023-01-28T09:42:38;97018.59;;;1.45;100.00
34297;BME280;20564;42.902;25.336;2023-01-28T09:45:27;97005.25;;;1.37;100.00
34297;BME280;20564;42.902;25.336;2023-01-28T09:48:00;96988.47;;;1.28;100.00
34297;BME280;20564;42.902;25.336;2023-01-28T09:50:37;97011.75;;;1.44;100.00
34297;BME280;20564;42.902;25.336;2023-01-28T09:53:11;97016.94;;;1.44;100.00
34297;BME280;20564;42.902;25.336;2023-01-28T09:55:42;97011.59;;;1.47;100.00
34297;BME280;20564;42.902;25.336;2023-01-28T09:58:11;97012.91;;;1.54;100.00
34297;BME280;20564;42.902;25.336;2023-01-28T10:19:35;97008.97;;;1.77;100.00
34297;BME280;20564;42.902;25.336;2023-01-28T10:22:11;97007.41;;;1.89;100.00
34297;BME280;20564;42.902;25.336;2023-01-28T10:24:47;97006.09;;;1.96;100.00
34297;BME280;20564;42.902;25.336;2023-01-28T10:27:22;97000.84;;;1.98;100.00
34297;BME280;20564;42.902;25.336;2023-01-28T10:29:49;97004.81;;;2.03;100.00
34297;BME280;20564;42.902;25.336;2023-01-28T10:32:30;97009.66;;;2.09;100.00
34297;BME280;20564;42.902;25.336;2023-01-28T10:34:57;97002.97;;;2.05;100.00
34297;BME280;20564;42.902;25.336;2023-01-28T10:37:33;97012.78;;;2.14;100.00
34297;BME280;20564;42.902;25.336;2023-01-28T10:40:02;96999.81;;;2.14;100.00
34297;BME280;20564;42.902;25.336;2023-01-28T10:42:35;97004.06;;;2.15;100.00
34297;BME280;20564;42.902;25.336;2023-01-28T10:47:55;97013.06;;;2.24;100.00
34297;BME280;20564;42.902;25.336;2023-01-28T10:50:28;97007.78;;;2.26;100.00
34297;BME280;20564;42.902;25.336;2023-01-28T10:52:59;97016.22;;;2.29;100.00
34297;BME280;20564;42.902;25.336;2023-01-28T10:55:33;97013.72;;;2.28;100.00
34297;BME280;20564;42.902;25.336;2023-01-28T10:58:04;97014.09;;;2.36;100.00
34297;BME280;20564;42.902;25.336;2023-01-28T11:00:35;97017.22;;;2.41;100.00
34297;BME280;20564;42.902;25.336;2023-01-28T11:03:03;97011.31;;;2.39;100.00
34297;BME280;20564;42.902;25.336;2023-01-28T11:05:30;97013.59;;;2.44;100.00
34297;BME280;20564;42.902;25.336;2023-01-28T11:08:15;97007.13;;;2.36;100.00
34297;BME280;20564;42.902;25.336;2023-01-28T11:10:45;97002.03;;;2.35;100.00
34297;BME280;20564;42.902;25.336;2023-01-28T11:15:48;97007.03;;;2.38;100.00
34297;BME280;20564;42.902;25.336;2023-01-28T11:18:23;97009.63;;;2.38;100.00
34297;BME280;20564;42.902;25.336;2023-01-28T11:20:54;97008.69;;;2.39;100.00
34297;BME280;20564;42.902;25.336;2023-01-28T11:23:29;97004.22;;;2.41;100.00
34297;BME280;20564;42.902;25.336;2023-01-28T11:26:06;97009.25;;;2.30;100.00
34297;BME280;20564;42.902;25.336;2023-01-28T11:28:34;96997.97;;;2.31;100.00
34297;BME280;20564;42.902;25.336;2023-01-28T11:31:07;96996.66;;;2.24;100.00
34297;BME280;20564;42.902;25.336;2023-01-28T11:33:37;97001.69;;;2.27;100.00
34297;BME280;20564;42.902;25.336;2023-01-28T11:36:26;96988.03;;;2.09;100.00
34297;BME280;20564;42.902;25.336;2023-01-28T11:38:59;97007.41;;;2.17;100.00
34297;BME280;20564;42.902;25.336;2023-01-28T11:41:32;96993.41;;;2.20;100.00
34297;BME280;20564;42.902;25.336;2023-01-28T11:44:15;97006.47;;;2.33;100.00
34297;BME280;20564;42.902;25.336;2023-01-28T11:46:50;97007.94;;;2.37;100.00
34297;BME280;20564;42.902;25.336;2023-01-28T11:49:37;97003.16;;;2.31;100.00
34297;BME280;20564;42.902;25.336;2023-01-28T11:55:59;96999.97;;;2.26;100.00
34297;BME280;20564;42.902;25.336;2023-01-28T12:01:46;97012.69;;;2.30;100.00
34297;BME280;20564;42.902;25.336;2023-01-28T12:09:59;97006.28;;;2.07;100.00
34297;BME280;20564;42.902;25.336;2023-01-28T12:16:02;97009.91;;;2.05;100.00
34297;BME280;20564;42.902;25.336;2023-01-28T12:18:59;97008.69;;;1.96;100.00
34297;BME280;20564;42.902;25.336;2023-01-28T12:24:23;97014.25;;;1.90;100.00
34297;BME280;20564;42.902;25.336;2023-01-28T12:35:34;97011.44;;;1.79;100.00
34297;BME280;20564;42.902;25.336;2023-01-28T12:41:21;97020.94;;;1.80;100.00
34297;BME280;20564;42.902;25.336;2023-01-28T12:44:05;97021.84;;;1.79;100.00
34297;BME280;20564;42.902;25.336;2023-01-28T12:49:29;97022.59;;;1.81;100.00
34297;BME280;20564;42.902;25.336;2023-01-28T12:52:21;97022.41;;;1.84;100.00
34297;BME280;20564;42.902;25.336;2023-01-28T12:57:42;97021.13;;;1.91;100.00
34297;BME280;20564;42.902;25.336;2023-01-28T13:03:08;97028.53;;;1.97;100.00
34297;BME280;20564;42.902;25.336;2023-01-28T13:05:42;97024.75;;;2.03;100.00
34297;BME280;20564;42.902;25.336;2023-01-28T13:08:26;97027.63;;;1.98;100.00
34297;BME280;20564;42.902;25.336;2023-01-28T13:10:55;97038.28;;;2.08;100.00
34297;BME280;20564;42.902;25.336;2023-01-28T13:13:40;97039.97;;;2.09;100.00
34297;BME280;20564;42.902;25.336;2023-01-28T13:16:11;97046.81;;;2.10;100.00
34297;BME280;20564;42.902;25.336;2023-01-28T13:18:43;97049.69;;;2.05;100.00
34297;BME280;20564;42.902;25.336;2023-01-28T13:24:04;97041.91;;;2.05;100.00
34297;BME280;20564;42.902;25.336;2023-01-28T13:26:44;97051.91;;;2.11;100.00
34297;BME280;20564;42.902;25.336;2023-01-28T13:31:44;97050.38;;;2.23;100.00
34297;BME280;20564;42.902;25.336;2023-01-28T13:35:04;97058.97;;;2.24;100.00
34297;BME280;20564;42.902;25.336;2023-01-28T13:37:46;97062.88;;;2.16;100.00
34297;BME280;20564;42.902;25.336;2023-01-28T13:40:34;97062.88;;;2.16;100.00
34297;BME280;20564;42.902;25.336;2023-01-28T13:43:05;97066.59;;;2.12;100.00
34297;BME280;20564;42.902;25.336;2023-01-28T13:45:33;97068.06;;;2.16;100.00
34297;BME280;20564;42.902;25.336;2023-01-28T13:48:39;97069.91;;;2.14;100.00
34297;BME280;20564;42.902;25.336;2023-01-28T13:51:27;97073.97;;;2.04;100.00
34297;BME280;20564;42.902;25.336;2023-01-28T13:54:16;97076.00;;;1.99;100.00
34297;BME280;20564;42.902;25.336;2023-01-28T14:02:49;97086.84;;;1.91;100.00
34297;BME280;20564;42.902;25.336;2023-01-28T14:15:12;97092.09;;;1.76;100.00
34297;BME280;20564;42.902;25.336;2023-01-28T14:17:57;97093.16;;;1.72;100.00
34297;BME280;20564;42.902;25.336;2023-01-28T14:20:43;97086.16;;;1.74;100.00
34297;BME280;20564;42.902;25.336;2023-01-28T14:23:16;97085.97;;;1.77;100.00
34297;BME280;20564;42.902;25.336;2023-01-28T14:31:26;97086.16;;;1.74;100.00
34297;BME280;20564;42.902;25.336;2023-01-28T14:33:59;97085.31;;;1.73;100.00
34297;BME280;20564;42.902;25.336;2023-01-28T14:36:40;97093.16;;;1.72;100.00
34297;BME280;20564;42.902;25.336;2023-01-28T14:39:20;97076.28;;;1.64;100.00
34297;BME280;20564;42.902;25.336;2023-01-28T14:41:50;97086.84;;;1.61;100.00
34297;BME280;20564;42.902;25.336;2023-01-28T14:44:39;97091.84;;;1.64;100.00
34297;BME280;20564;42.902;25.336;2023-01-28T14:56:27;97106.34;;;1.53;100.00
34297;BME280;20564;42.902;25.336;2023-01-28T14:59:05;97106.28;;;1.54;100.00
34297;BME280;20564;42.902;25.336;2023-01-28T15:01:42;97105.69;;;1.49;100.00
34297;BME280;20564;42.902;25.336;2023-01-28T15:04:32;97114.50;;;1.47;100.00
34297;BME280;20564;42.902;25.336;2023-01-28T15:07:24;97110.16;;;1.47;100.00
34297;BME280;20564;42.902;25.336;2023-01-28T15:10:26;97109.47;;;1.43;100.00
34297;BME280;20564;42.902;25.336;2023-01-28T15:13:10;97117.50;;;1.39;100.00
34297;BME280;20564;42.902;25.336;2023-01-28T15:15:46;97110.66;;;1.38;100.00
34297;BME280;20564;42.902;25.336;2023-01-28T15:18:18;97126.19;;;1.38;100.00
34297;BME280;20564;42.902;25.336;2023-01-28T15:20:51;97116.94;;;1.34;100.00